createdAt,value
2018-05-29T00:00:25.452Z,59.31
2018-05-29T00:02:53.190Z,59.49
2018-05-29T00:05:19.718Z,59.60
2018-05-29T00:07:46.129Z,60.03
2018-05-29T00:10:12.571Z,59.71
2018-05-29T00:12:39.055Z,59.74
2018-05-29T00:15:05.436Z,59.24
2018-05-29T00:17:31.858Z,60.07
2018-05-29T00:19:58.419Z,60.94
2018-05-29T00:22:24.783Z,60.27
2018-05-29T00:24:51.261Z,60.38
2018-05-29T00:27:17.643Z,61.51
2018-05-29T00:29:44.010Z,61.46
2018-05-29T00:32:10.446Z,60.97
2018-05-29T00:34:36.802Z,61.16
2018-05-29T00:37:04.015Z,61.17
2018-05-29T00:39:30.458Z,61.07
2018-05-29T00:41:56.841Z,60.97
2018-05-29T00:44:23.369Z,60.32
2018-05-29T00:46:49.750Z,60.81
2018-05-29T00:49:16.111Z,61.08
2018-05-29T00:51:42.505Z,61.34
2018-05-29T00:54:09.582Z,61.32
2018-05-29T00:56:36.099Z,60.57
2018-05-29T00:59:02.496Z,60.26
2018-05-29T01:01:28.921Z,59.33
2018-05-29T01:03:55.274Z,59.33
2018-05-29T01:06:21.698Z,60.25
2018-05-29T01:08:48.115Z,61.15
2018-05-29T01:11:14.450Z,60.89
2018-05-29T01:13:40.876Z,60.18
2018-05-29T01:16:07.215Z,60.99
2018-05-29T01:18:33.596Z,61.30
2018-05-29T01:21:00.542Z,60.56
2018-05-29T01:23:26.954Z,61.14
2018-05-29T01:25:53.458Z,60.97
2018-05-29T01:28:19.866Z,61.29
2018-05-29T01:30:46.221Z,60.97
2018-05-29T01:33:12.535Z,60.34
2018-05-29T01:35:39.067Z,60.04
2018-05-29T01:38:05.527Z,60.16
2018-05-29T01:40:31.869Z,59.76
2018-05-29T01:42:58.248Z,59.19
2018-05-29T01:45:24.603Z,58.83
2018-05-29T01:47:51.052Z,58.83
2018-05-29T01:50:17.592Z,59.08
2018-05-29T01:52:44.124Z,59.22
2018-05-29T01:55:10.526Z,59.04
2018-05-29T01:57:36.987Z,58.81
2018-05-29T02:00:03.352Z,59.18
2018-05-29T02:02:29.764Z,59.33
2018-05-29T02:04:56.228Z,59.34
2018-05-29T02:07:22.582Z,59.12
2018-05-29T02:09:49.053Z,59.05
2018-05-29T02:12:15.497Z,58.94
2018-05-29T02:14:41.919Z,58.40
2018-05-29T02:17:08.432Z,58.50
2018-05-29T02:19:34.895Z,58.06
2018-05-29T02:22:01.254Z,58.14
2018-05-29T02:24:27.632Z,58.34
2018-05-29T02:26:54.034Z,58.14
2018-05-29T02:29:20.450Z,57.79
2018-05-29T02:31:46.838Z,57.74
2018-05-29T02:34:13.221Z,57.52
2018-05-29T02:36:39.626Z,57.25
2018-05-29T02:39:05.983Z,56.51
2018-05-29T02:41:32.460Z,55.69
2018-05-29T02:43:58.873Z,55.05
2018-05-29T02:46:25.261Z,54.55
2018-05-29T02:48:51.737Z,54.39
2018-05-29T02:51:18.930Z,54.58
2018-05-29T02:53:45.321Z,54.58
2018-05-29T02:56:11.754Z,54.57
2018-05-29T02:58:38.114Z,54.71
2018-05-29T03:01:04.498Z,55.08
2018-05-29T03:03:30.900Z,55.17
2018-05-29T03:05:58.188Z,55.20
2018-05-29T03:08:24.587Z,55.31
2018-05-29T03:10:50.998Z,55.34
2018-05-29T03:13:17.394Z,55.52
2018-05-29T03:15:43.742Z,56.22
2018-05-29T03:18:10.191Z,55.71
2018-05-29T03:20:36.565Z,56.01
2018-05-29T03:23:02.946Z,56.55
2018-05-29T03:25:29.453Z,56.72
2018-05-29T03:27:55.834Z,56.37
2018-05-29T03:30:22.232Z,56.42
2018-05-29T03:32:48.664Z,56.41
2018-05-29T03:35:15.036Z,56.18
2018-05-29T03:37:41.419Z,56.51
2018-05-29T03:40:07.849Z,56.46
2018-05-29T03:42:34.212Z,56.27
2018-05-29T03:45:00.569Z,56.67
2018-05-29T03:47:26.970Z,56.56
2018-05-29T03:49:53.426Z,57.04
2018-05-29T03:52:19.791Z,56.90
2018-05-29T03:54:46.244Z,56.84
2018-05-29T03:57:12.609Z,56.85
2018-05-29T03:59:38.956Z,56.45
2018-05-29T04:02:05.454Z,56.58
2018-05-29T04:04:31.828Z,56.19
2018-05-29T04:06:59.248Z,55.81
2018-05-29T04:09:25.761Z,55.32
2018-05-29T04:11:52.046Z,54.59
2018-05-29T04:14:18.414Z,53.52
2018-05-29T04:16:44.825Z,52.86
2018-05-29T04:19:11.171Z,52.94
2018-05-29T04:21:38.353Z,52.90
2018-05-29T04:24:04.937Z,53.15
2018-05-29T04:26:31.332Z,52.83
2018-05-29T04:28:57.709Z,52.89
2018-05-29T04:31:24.071Z,53.24
2018-05-29T04:33:51.060Z,53.44
2018-05-29T04:36:17.521Z,54.35
2018-05-29T04:38:43.924Z,54.52
2018-05-29T04:41:10.318Z,54.66
2018-05-29T04:43:36.852Z,54.88
2018-05-29T04:46:03.334Z,54.29
2018-05-29T04:48:29.715Z,54.30
2018-05-29T04:50:56.108Z,54.16
2018-05-29T04:53:22.558Z,53.81
2018-05-29T04:55:49.225Z,53.73
2018-05-29T04:58:15.580Z,53.65
2018-05-29T05:00:42.064Z,53.50
2018-05-29T05:03:08.465Z,53.63
2018-05-29T05:05:34.924Z,53.52
2018-05-29T05:08:01.360Z,53.12
2018-05-29T05:10:27.721Z,52.44
2018-05-29T05:12:54.096Z,52.55
2018-05-29T05:15:20.505Z,51.95
2018-05-29T05:17:46.850Z,51.81
2018-05-29T05:20:13.346Z,52.17
2018-05-29T05:22:39.774Z,52.30
2018-05-29T05:25:06.123Z,51.71
2018-05-29T05:27:32.481Z,51.59
2018-05-29T05:29:59.207Z,51.86
2018-05-29T05:32:25.553Z,50.63
2018-05-29T05:34:51.979Z,50.82
2018-05-29T05:37:18.459Z,50.60
2018-05-29T05:39:44.830Z,50.91
2018-05-29T05:42:11.268Z,50.94
2018-05-29T05:44:37.721Z,50.82
2018-05-29T05:47:04.066Z,50.43
2018-05-29T05:49:31.456Z,50.31
2018-05-29T05:51:57.889Z,50.98
2018-05-29T05:54:24.420Z,50.73
2018-05-29T05:56:50.971Z,50.32
2018-05-29T05:59:17.492Z,50.45
2018-05-29T06:01:43.859Z,49.70
2018-05-29T06:04:10.353Z,49.11
2018-05-29T06:06:36.768Z,48.71
2018-05-29T06:09:04.222Z,48.55
2018-05-29T06:11:30.659Z,47.87
2018-05-29T06:13:57.114Z,48.69
2018-05-29T06:16:23.608Z,49.14
2018-05-29T06:18:49.957Z,50.22
2018-05-29T06:21:16.353Z,48.72
2018-05-29T06:23:42.745Z,48.62
2018-05-29T06:26:09.383Z,47.73
2018-05-29T06:28:35.994Z,48.59
2018-05-29T06:31:02.512Z,48.00
2018-05-29T06:33:29.120Z,47.45
2018-05-29T06:35:56.401Z,47.66
2018-05-29T06:38:22.914Z,47.18
2018-05-29T06:40:49.368Z,46.53
2018-05-29T06:43:15.903Z,47.21
2018-05-29T06:45:59.561Z,46.43
2018-05-29T06:51:11.506Z,46.11
2018-05-29T06:53:38.154Z,46.76
2018-05-29T06:56:04.735Z,45.49
2018-05-29T06:58:31.190Z,45.28
2018-05-29T07:00:57.646Z,45.66
2018-05-29T07:03:24.083Z,45.97
2018-05-29T07:05:50.578Z,44.98
2018-05-29T07:08:17.028Z,44.70
2018-05-29T07:10:43.665Z,43.57
2018-05-29T07:13:10.072Z,44.25
2018-05-29T07:15:36.540Z,42.91
2018-05-29T07:18:02.966Z,42.83
2018-05-29T07:20:29.518Z,43.35
2018-05-29T07:22:55.993Z,41.73
2018-05-29T07:25:22.469Z,43.14
2018-05-29T07:27:49.683Z,43.46
2018-05-29T07:30:16.168Z,42.09
2018-05-29T07:32:42.669Z,41.58
2018-05-29T07:35:09.162Z,41.01
2018-05-29T07:37:35.626Z,42.07
2018-05-29T07:40:02.182Z,40.98
2018-05-29T07:42:28.793Z,41.52
2018-05-29T07:44:55.270Z,41.71
2018-05-29T07:47:21.889Z,41.84
2018-05-29T07:49:48.350Z,42.20
2018-05-29T07:52:14.827Z,42.13
2018-05-29T07:54:41.315Z,41.93
2018-05-29T07:57:07.768Z,42.67
2018-05-29T07:59:34.231Z,41.72
2018-05-29T08:02:00.746Z,41.28
2018-05-29T08:04:27.206Z,42.36
2018-05-29T08:06:53.730Z,41.81
2018-05-29T08:09:20.244Z,41.22
2018-05-29T08:11:46.862Z,42.22
2018-05-29T08:14:13.314Z,41.79
2018-05-29T08:16:39.798Z,41.73
2018-05-29T08:19:06.298Z,41.65
2018-05-29T08:21:32.754Z,41.86
2018-05-29T08:23:59.186Z,42.13
2018-05-29T08:26:25.850Z,41.26
2018-05-29T08:28:52.364Z,41.91
2018-05-29T08:31:18.864Z,41.90
2018-05-29T08:33:45.296Z,41.58
2018-05-29T08:36:11.778Z,42.65
2018-05-29T08:38:38.193Z,41.18
2018-05-29T08:41:04.725Z,41.97
2018-05-29T08:43:31.370Z,41.86
2018-05-29T08:45:57.845Z,41.60
2018-05-29T08:48:24.360Z,43.02
2018-05-29T08:50:51.015Z,41.66
2018-05-29T08:53:17.592Z,41.90
2018-05-29T08:55:44.026Z,42.23
2018-05-29T08:58:10.514Z,41.40
2018-05-29T09:00:36.986Z,38.67
2018-05-29T09:03:03.490Z,36.23
2018-05-29T09:05:30.176Z,37.16
2018-05-29T09:07:56.775Z,34.97
2018-05-29T09:10:23.284Z,33.63
2018-05-29T09:12:49.874Z,34.72
2018-05-29T09:15:16.560Z,35.80
2018-05-29T09:17:43.224Z,37.71
2018-05-29T09:20:09.762Z,40.85
2018-05-29T09:22:36.354Z,36.37
2018-05-29T09:25:02.831Z,34.39
2018-05-29T09:27:29.348Z,39.05
2018-05-29T09:29:56.179Z,39.12
2018-05-29T09:32:22.685Z,35.73
2018-05-29T09:34:49.132Z,34.76
2018-05-29T09:37:15.572Z,33.42
2018-05-29T09:39:42.072Z,39.17
2018-05-29T09:42:08.670Z,34.35
2018-05-29T09:44:35.292Z,33.22
2018-05-29T09:47:01.886Z,36.51
2018-05-29T09:49:28.330Z,31.33
2018-05-29T09:51:54.881Z,41.00
2018-05-29T09:54:21.408Z,32.62
2018-05-29T09:56:48.056Z,33.15
2018-05-29T09:59:14.497Z,38.95
2018-05-29T10:01:41.093Z,39.62
2018-05-29T10:04:07.780Z,31.11
2018-05-29T10:06:34.252Z,31.08
2018-05-29T10:09:00.744Z,41.41
2018-05-29T10:11:27.287Z,32.20
2018-05-29T10:13:53.807Z,35.03
2018-05-29T10:16:20.288Z,29.24
2018-05-29T10:18:46.801Z,28.87
2018-05-29T10:21:13.260Z,31.27
2018-05-29T10:23:39.752Z,30.96
2018-05-29T10:26:06.311Z,36.06
2018-05-29T10:28:32.741Z,33.93
2018-05-29T10:30:59.284Z,36.15
2018-05-29T10:33:25.735Z,32.02
2018-05-29T10:35:52.212Z,34.03
2018-05-29T10:38:18.683Z,30.34
2018-05-29T10:40:45.344Z,34.42
2018-05-29T10:43:12.760Z,30.37
2018-05-29T10:45:39.243Z,39.21
2018-05-29T10:48:05.747Z,29.54
2018-05-29T10:50:32.163Z,29.88
2018-05-29T10:52:58.641Z,33.93
2018-05-29T10:55:25.433Z,29.54
2018-05-29T10:57:51.892Z,33.87
2018-05-29T11:00:18.335Z,33.17
2018-05-29T11:02:44.786Z,27.50
2018-05-29T11:05:11.247Z,28.32
2018-05-29T11:07:37.623Z,28.45
2018-05-29T11:10:04.030Z,35.32
2018-05-29T11:12:30.513Z,29.95
2018-05-29T11:14:56.853Z,27.61
2018-05-29T11:17:23.268Z,28.46
2018-05-29T11:19:50.263Z,35.47
2018-05-29T11:22:16.600Z,31.77
2018-05-29T11:24:42.950Z,35.27
2018-05-29T11:27:09.352Z,30.59
2018-05-29T11:29:35.964Z,30.63
2018-05-29T11:32:02.384Z,38.48
2018-05-29T11:34:28.717Z,27.47
2018-05-29T11:36:55.058Z,27.79
2018-05-29T11:39:21.611Z,34.94
2018-05-29T11:41:48.063Z,29.36
2018-05-29T11:44:14.439Z,29.92
2018-05-29T11:46:40.895Z,30.34
2018-05-29T11:49:07.301Z,30.10
2018-05-29T11:51:33.641Z,31.53
2018-05-29T11:54:00.099Z,32.43
2018-05-29T11:56:26.645Z,31.45
2018-05-29T11:58:52.948Z,29.84
2018-05-29T12:01:19.285Z,32.45
2018-05-29T12:03:45.873Z,33.76
2018-05-29T12:06:12.281Z,30.79
2018-05-29T12:08:38.815Z,28.90
2018-05-29T12:11:06.227Z,28.63
2018-05-29T12:13:32.603Z,33.21
2018-05-29T12:15:58.939Z,29.09
2018-05-29T12:18:25.405Z,35.29
2018-05-29T12:20:52.066Z,36.21
2018-05-29T12:23:18.386Z,31.97
2018-05-29T12:25:44.902Z,37.40
2018-05-29T12:28:11.327Z,28.60
2018-05-29T12:30:37.701Z,37.08
2018-05-29T12:33:04.044Z,28.97
2018-05-29T12:35:30.507Z,34.09
2018-05-29T12:37:56.866Z,33.45
2018-05-29T12:40:23.251Z,30.85
2018-05-29T12:42:49.806Z,33.58
2018-05-29T12:45:16.110Z,30.96
2018-05-29T12:47:42.504Z,32.53
2018-05-29T12:50:08.901Z,29.32
2018-05-29T12:52:35.286Z,32.14
2018-05-29T12:55:01.942Z,29.32
2018-05-29T12:57:28.341Z,37.96
2018-05-29T12:59:54.748Z,29.16
2018-05-29T13:02:21.149Z,33.36
2018-05-29T13:04:47.482Z,30.17
2018-05-29T13:07:13.810Z,32.84
2018-05-29T13:09:40.167Z,31.25
2018-05-29T13:12:06.472Z,32.09
2018-05-29T13:14:32.822Z,34.51
2018-05-29T13:16:59.138Z,36.59
2018-05-29T13:19:25.462Z,31.02
2018-05-29T13:21:51.784Z,33.92
2018-05-29T13:24:18.053Z,34.05
2018-05-29T13:26:44.520Z,37.89
2018-05-29T13:29:10.849Z,31.79
2018-05-29T13:31:37.206Z,33.82
2018-05-29T13:34:03.551Z,35.90
2018-05-29T13:36:29.846Z,38.33
2018-05-29T13:38:56.145Z,37.15
2018-05-29T13:41:22.570Z,35.31
2018-05-29T13:43:48.912Z,36.72
2018-05-29T13:46:15.266Z,35.11
2018-05-29T13:48:41.608Z,34.02
2018-05-29T13:51:07.997Z,33.35
2018-05-29T13:53:34.332Z,38.78
2018-05-29T13:56:01.687Z,38.30
2018-05-29T13:58:28.145Z,32.20
2018-05-29T14:00:54.509Z,34.57
2018-05-29T14:03:20.805Z,33.57
2018-05-29T14:05:47.232Z,34.34
2018-05-29T14:08:13.708Z,37.33
2018-05-29T14:10:40.159Z,32.79
2018-05-29T14:13:06.465Z,33.00
2018-05-29T14:15:32.802Z,36.45
2018-05-29T14:17:59.199Z,37.52
2018-05-29T14:20:25.618Z,36.50
2018-05-29T14:22:51.968Z,33.92
2018-05-29T14:25:18.279Z,34.07
2018-05-29T14:27:44.612Z,33.48
2018-05-29T14:30:11.037Z,33.74
2018-05-29T14:32:37.368Z,34.21
2018-05-29T14:35:03.734Z,36.34
2018-05-29T14:37:30.082Z,33.67
2018-05-29T14:39:56.421Z,33.51
2018-05-29T14:42:22.722Z,31.79
2018-05-29T14:44:49.124Z,31.12
2018-05-29T14:47:15.662Z,33.26
2018-05-29T14:49:42.069Z,32.77
2018-05-29T14:52:08.450Z,33.28
2018-05-29T14:54:34.765Z,37.38
2018-05-29T14:57:01.144Z,36.33
2018-05-29T14:59:27.524Z,36.89
2018-05-29T15:01:53.909Z,34.76
2018-05-29T15:04:20.314Z,32.31
2018-05-29T15:06:46.653Z,34.60
2018-05-29T15:09:12.984Z,31.87
2018-05-29T15:11:39.304Z,32.90
2018-05-29T15:14:05.649Z,31.53
2018-05-29T15:16:31.994Z,37.46
2018-05-29T15:18:58.289Z,32.94
2018-05-29T15:21:24.654Z,35.90
2018-05-29T15:23:50.980Z,33.84
2018-05-29T15:26:17.369Z,34.60
2018-05-29T15:28:43.706Z,34.59
2018-05-29T15:31:10.017Z,34.79
2018-05-29T15:33:36.338Z,34.42
2018-05-29T15:36:02.718Z,37.00
2018-05-29T15:38:29.054Z,38.94
2018-05-29T15:40:55.396Z,35.59
2018-05-29T15:43:21.696Z,35.66
2018-05-29T15:45:48.038Z,34.68
2018-05-29T15:48:14.399Z,34.81
2018-05-29T15:50:40.717Z,38.28
2018-05-29T15:53:07.149Z,36.91
2018-05-29T15:55:33.454Z,35.33
2018-05-29T15:57:59.801Z,36.01
2018-05-29T16:00:26.106Z,35.21
2018-05-29T16:02:52.443Z,36.87
2018-05-29T16:05:18.772Z,36.12
2018-05-29T16:07:45.140Z,39.12
2018-05-29T16:10:11.520Z,35.90
2018-05-29T16:12:37.920Z,35.25
2018-05-29T16:15:04.608Z,38.09
2018-05-29T16:17:31.301Z,37.57
2018-05-29T16:19:57.648Z,39.09
2018-05-29T16:22:23.988Z,34.71
2018-05-29T16:24:50.326Z,34.76
2018-05-29T16:27:16.674Z,37.69
2018-05-29T16:29:43.042Z,36.67
2018-05-29T16:32:09.398Z,34.54
2018-05-29T16:34:35.836Z,35.27
2018-05-29T16:37:02.183Z,35.18
2018-05-29T16:39:28.506Z,34.87
2018-05-29T16:41:54.836Z,34.98
2018-05-29T16:44:21.241Z,38.41
2018-05-29T16:46:47.594Z,34.60
2018-05-29T16:49:13.959Z,36.21
2018-05-29T16:51:40.266Z,34.78
2018-05-29T16:54:06.590Z,35.23
2018-05-29T16:56:32.978Z,35.34
2018-05-29T16:58:59.285Z,36.02
2018-05-29T17:01:25.642Z,37.29
2018-05-29T17:03:51.944Z,37.62
2018-05-29T17:06:18.236Z,36.65
2018-05-29T17:08:44.584Z,35.59
2018-05-29T17:11:10.905Z,35.62
2018-05-29T17:13:37.240Z,36.66
2018-05-29T17:16:03.605Z,35.90
2018-05-29T17:18:29.907Z,37.00
2018-05-29T17:20:56.559Z,36.38
2018-05-29T17:23:23.183Z,39.11
2018-05-29T17:25:49.706Z,37.31
2018-05-29T17:28:16.021Z,36.59
2018-05-29T17:30:42.329Z,38.17
2018-05-29T17:33:08.762Z,40.23
2018-05-29T17:35:35.050Z,36.19
2018-05-29T17:38:01.388Z,36.96
2018-05-29T17:40:27.712Z,36.51
2018-05-29T17:42:54.370Z,36.33
2018-05-29T17:45:20.707Z,36.38
2018-05-29T17:47:47.031Z,36.91
2018-05-29T17:50:13.390Z,36.96
2018-05-29T17:52:39.727Z,38.45
2018-05-29T17:55:06.120Z,38.45
2018-05-29T17:57:32.472Z,38.45
2018-05-29T17:59:58.872Z,38.89
2018-05-29T18:02:25.199Z,38.57
2018-05-29T18:04:51.513Z,39.14
2018-05-29T18:07:17.886Z,39.30
2018-05-29T18:09:44.247Z,39.12
2018-05-29T18:12:10.595Z,39.21
2018-05-29T18:14:36.984Z,39.88
2018-05-29T18:17:03.298Z,40.06
2018-05-29T18:19:29.649Z,42.35
2018-05-29T18:21:56.033Z,42.17
2018-05-29T18:24:22.383Z,41.93
2018-05-29T18:26:48.706Z,43.08
2018-05-29T18:29:15.174Z,43.71
2018-05-29T18:31:41.538Z,44.46
2018-05-29T18:34:07.887Z,44.93
2018-05-29T18:36:34.286Z,44.93
2018-05-29T18:39:00.619Z,47.10
2018-05-29T18:41:26.964Z,47.52
2018-05-29T18:43:53.344Z,49.54
2018-05-29T18:46:19.741Z,48.77
2018-05-29T18:48:47.153Z,48.24
2018-05-29T18:51:13.458Z,49.41
2018-05-29T18:53:39.919Z,50.88
2018-05-29T18:56:06.271Z,51.13
2018-05-29T18:58:32.672Z,50.69
2018-05-29T19:00:58.998Z,49.92
2018-05-29T19:03:25.447Z,50.12
2018-05-29T19:05:51.779Z,50.18
2018-05-29T19:08:18.083Z,51.26
2018-05-29T19:10:44.602Z,50.43
2018-05-29T19:13:10.949Z,51.03
2018-05-29T19:15:38.290Z,51.86
2018-05-29T19:18:04.646Z,52.52
2018-05-29T19:20:30.974Z,53.23
2018-05-29T19:22:57.391Z,53.58
2018-05-29T19:25:23.656Z,53.28
2018-05-29T19:27:50.022Z,52.45
2018-05-29T19:30:16.346Z,53.88
2018-05-29T19:32:42.717Z,53.85
2018-05-29T19:35:09.093Z,53.92
2018-05-29T19:37:35.503Z,54.20
2018-05-29T19:40:01.822Z,54.30
2018-05-29T19:42:28.137Z,56.30
2018-05-29T19:44:54.477Z,56.24
2018-05-29T19:47:20.845Z,55.50
2018-05-29T19:49:47.188Z,54.85
2018-05-29T19:52:13.588Z,53.73
2018-05-29T19:54:40.079Z,54.82
2018-05-29T19:57:06.679Z,54.29
2018-05-29T19:59:33.014Z,54.53
2018-05-29T20:01:59.374Z,54.64
2018-05-29T20:04:25.746Z,56.68
2018-05-29T20:06:52.164Z,58.08
2018-05-29T20:09:18.462Z,58.03
2018-05-29T20:11:44.829Z,58.82
2018-05-29T20:14:11.140Z,55.75
2018-05-29T20:16:37.434Z,56.85
2018-05-29T20:19:03.861Z,56.76
2018-05-29T20:21:30.180Z,57.51
2018-05-29T20:23:56.566Z,58.11
2018-05-29T20:26:22.936Z,58.31
2018-05-29T20:28:49.309Z,57.35
2018-05-29T20:31:15.708Z,57.17
2018-05-29T20:33:42.096Z,58.19
2018-05-29T20:36:08.498Z,60.51
2018-05-29T20:38:34.846Z,61.69
2018-05-29T20:41:01.198Z,63.52
2018-05-29T20:43:27.583Z,62.93
2018-05-29T20:45:53.947Z,63.29
2018-05-29T20:48:20.298Z,64.33
2018-05-29T20:50:46.613Z,63.94
2018-05-29T20:53:12.969Z,64.37
2018-05-29T20:55:39.315Z,64.72
2018-05-29T20:58:06.596Z,65.52
2018-05-29T21:00:33.007Z,65.71
2018-05-29T21:02:59.357Z,65.75
2018-05-29T21:05:25.661Z,66.10
2018-05-29T21:07:52.008Z,66.40
2018-05-29T21:10:18.352Z,66.58
2018-05-29T21:12:44.687Z,66.61
2018-05-29T21:15:11.021Z,66.75
2018-05-29T21:17:37.400Z,66.58
2018-05-29T21:20:03.745Z,65.51
2018-05-29T21:22:30.093Z,64.04
2018-05-29T21:24:56.405Z,64.21
2018-05-29T21:27:22.849Z,64.71
2018-05-29T21:29:49.161Z,65.67
2018-05-29T21:32:15.537Z,66.14
2018-05-29T21:34:42.095Z,66.60
2018-05-29T21:37:08.425Z,66.99
2018-05-29T21:39:34.762Z,66.44
2018-05-29T21:42:01.099Z,66.78
2018-05-29T21:44:27.451Z,65.78
2018-05-29T21:46:53.808Z,66.78
2018-05-29T21:49:20.144Z,67.47
2018-05-29T21:51:46.494Z,68.52
2018-05-29T21:54:12.912Z,67.74
2018-05-29T21:56:39.266Z,67.54
2018-05-29T21:59:05.591Z,67.96
2018-05-29T22:01:31.945Z,68.13
2018-05-29T22:04:03.217Z,69.41
2018-05-29T22:06:29.631Z,69.01
2018-05-29T22:08:55.994Z,68.76
2018-05-29T22:11:22.333Z,68.41
2018-05-29T22:13:48.697Z,68.53
2018-05-29T22:16:15.054Z,68.46
2018-05-29T22:18:41.461Z,68.78
2018-05-29T22:21:07.811Z,69.30
2018-05-29T22:23:34.131Z,70.25
2018-05-29T22:26:00.469Z,70.44
2018-05-29T22:28:26.816Z,70.35
2018-05-29T22:30:54.143Z,70.57
2018-05-29T22:33:20.500Z,69.81
2018-05-29T22:35:46.939Z,69.68
2018-05-29T22:38:13.286Z,69.55
2018-05-29T22:40:39.648Z,68.99
2018-05-29T22:43:05.975Z,69.01
2018-05-29T22:45:32.363Z,68.67
2018-05-29T22:47:58.676Z,68.78
2018-05-29T22:50:25.164Z,68.73
2018-05-29T22:52:51.561Z,68.65
2018-05-29T22:55:17.975Z,69.10
2018-05-29T22:57:44.319Z,68.86
2018-05-29T23:00:10.730Z,69.04
2018-05-29T23:02:36.972Z,69.66
2018-05-29T23:05:03.331Z,69.28
2018-05-29T23:07:29.778Z,69.15
2018-05-29T23:09:56.260Z,69.07
2018-05-29T23:12:22.644Z,69.27
2018-05-29T23:14:49.127Z,69.92
2018-05-29T23:17:15.539Z,70.41
2018-05-29T23:19:41.918Z,69.79
2018-05-29T23:22:08.426Z,69.62
2018-05-29T23:24:34.840Z,69.54
2018-05-29T23:27:01.232Z,69.21
2018-05-29T23:29:27.627Z,68.65
2018-05-29T23:31:54.039Z,69.81
2018-05-29T23:34:20.466Z,70.54
2018-05-29T23:36:46.852Z,70.87
2018-05-29T23:39:13.262Z,70.68
2018-05-29T23:41:39.691Z,70.76
2018-05-29T23:44:06.106Z,70.12
2018-05-29T23:46:32.570Z,70.47
2018-05-29T23:48:59.023Z,69.81
2018-05-29T23:51:25.400Z,69.93
2018-05-29T23:53:51.787Z,69.95
2018-05-29T23:56:18.142Z,69.84
2018-05-29T23:58:44.514Z,70.42
